Aérodrome :
LOGIN :

S'inscrire | Disclaimer

   EN    FR    IT 

 










Légende :    VFR   VFR Marginal   IFR   IFR Intensif   IFR Très Intensif
Visi : 
Plafond : 
>= 8 km
>= 3000ft
5 à 8 km
1000 à 3000 ft
1500m à 5 km
500 à 1000 ft
800 à 1500m
200 à 500 ft
< 800m
< 200 ft
Symboles :   Orages  Brouillard  Fortes neiges  Fortes précipitations  Vent > 20 kt
SIGMETs :   Divers  Orages  Givrage  Turbulence  Onde Orograph.  Cendres Volcan.







- Altitude de l'aérodrome : 436 ft
- Code IATA : ANG
- Voir les cartes d'approche


LFBU - Angoulême Brie Champniers

DERNIER METAR :
  • 211200Z AUTO 03010KT 340V070 CAVOK 30/14 Q1018 NOSIG

METARs EXPIRÉS :
  • 211130Z AUTO 03010KT 340V090 CAVOK 29/14 Q1018 NOSIG
  • 211100Z AUTO 04008KT 340V100 CAVOK 29/14 Q1019 NOSIG
  • 211030Z AUTO 04010KT 010V100 CAVOK 28/14 Q1019 NOSIG
  • 211000Z AUTO 03009KT 360V080 CAVOK 27/14 Q1019 NOSIG
  • 210930Z AUTO 03011KT 360V060 CAVOK 27/14 Q1019 NOSIG

TAF TAF LFBU
Valide du 21 à 06h jusqu'au 22 à 06h UTC


210500Z 2106/2206 03007KT CAVOK
Pas de NOTAMs connus pour ce terrain.



MET'MAP, la Météo Aéronautique d'un coup d'oeil ! - Copyright ORBIFLY Décembre 2007 - Disclaimer

ORBIFLY MET'MAP TEAM :

Programmation & Développement : Alexandra Zaïnal
Conception & Développement : Baudouin d'Aumeries
Co-Programmation & Développement : Marc-Olivier Méhu
Soutien technique & logistique : Manuel Goepfert

Contact : metmap@orbifly.com




SOURCES & CREDITS :

   NOAA